Weather History for KOFF - January, 2013

Change the Weather History Date:

Wednesday, January 30, 2013

  Actual Average Record
Temperature  
Mean Temperature 23 °F -  
Max Temperature 32 °F 33 °F 69 °F (2012)
Min Temperature 14 °F 16 °F -4 °F (2004)
Degree Days  
Heating Degree Days 42    
Moisture  
Dew Point 20 °F    
Average Humidity 83    
Maximum Humidity 100    
Minimum Humidity 63    
Precipitation  
Precipitation 0.00 in - - ()
Snow  
Snow 0.00 in - - ()
Snow Depth 3.00 in    
Sea Level Pressure  
Sea Level Pressure 29.80 in    
Wind  
Wind Speed 19 mph (NW)    
Max Wind Speed 26 mph    
Max Gust Speed 37 mph    
Visibility 8 miles    
Events Snow    
Averages and records for this station are not official NWS values.
T = Trace of Precipitation, MM = Missing Value Source: NWS Daily Summary

Daily Weather History Graph

Daily Weather History Graph

Search for Another Location

Airport or City:

Trip Planner

Search our weather history database for the weather conditions in past years. The results will help you decide how hot, cold, wet, or windy it might be!

Date:

Astronomy

Jan. 30, 2013 Rise Set
Actual Time 7:36 AM CST 5:38 PM CST
Civil Twilight 7:06 AM CST 6:07 PM CST
Nautical Twilight 6:33 AM CST 6:40 PM CST
Astronomical Twilight 6:01 AM CST 7:13 PM CST
Moon 9:40 PM CST (1/30) 9:02 AM CST (1/30)
Length of Visible Light 11h 00m
Length of Day
10h 02m
Waning Gibbous, 87% of the Moon is Illuminated
Jan 30
Waning Gibbous
Feb 3
Last Quarter
Feb 10
New
Feb 17
First Quarter
Feb 25
Full

Hourly Weather History & Observations

Time (CST) Temp. Windchill Dew Point Humidity Pressure Visibility Wind Dir Wind Speed Gust Speed Precip Events Conditions
12:18 AM 32.0 °F 20.8 °F 32.0 °F 100% 29.67 in 10.0 mi NNW 17.3 mph 21.9 mph N/A Snow Light Snow
12:24 AM 32.0 °F 22.1 °F 32.0 °F 100% 29.67 in 10.0 mi NNW 13.8 mph 21.9 mph N/A Snow Light Snow
12:32 AM 30.2 °F 18.5 °F 30.2 °F 100% 29.67 in 7.0 mi NNW 17.3 mph 26.5 mph N/A Snow Light Snow
12:40 AM 30.2 °F 18.1 °F 30.2 °F 100% 29.67 in 5.0 mi NNW 18.4 mph 29.9 mph N/A Snow Light Snow
12:55 AM 30.0 °F 16.3 °F 29.8 °F 99% 29.66 in 4.0 mi NNW 24.2 mph 32.2 mph 0.00 in Snow Light Snow
1:15 AM 30.2 °F 17.8 °F 28.4 °F 93% 29.66 in 10.0 mi NNW 19.6 mph 28.8 mph N/A Snow Light Snow
1:28 AM 28.4 °F 15.8 °F 28.4 °F 100% 29.66 in 7.0 mi NNW 18.4 mph 27.6 mph N/A Snow Light Snow
1:55 AM 28.2 °F 15.2 °F 28.0 °F 99% 29.68 in 10.0 mi NNW 19.6 mph 29.9 mph 0.00 in Snow Light Snow
2:25 AM 28.4 °F 17.5 °F 28.4 °F 100% 29.68 in 10.0 mi NNW 13.8 mph 24.2 mph N/A Snow Light Snow
2:51 AM 26.6 °F 13.1 °F 26.6 °F 100% 29.71 in 10.0 mi NNW 19.6 mph 27.6 mph N/A Snow Light Snow
2:53 AM 26.6 °F 13.1 °F 26.6 °F 100% 29.71 in 10.0 mi NNW 19.6 mph 27.6 mph N/A Snow Light Snow
2:55 AM 27.1 °F 14.5 °F 27.0 °F 99% 29.71 in 10.0 mi NNW 17.3 mph 27.6 mph 0.00 in Snow Light Snow
3:00 AM 26.6 °F 12.4 °F 26.6 °F 100% 29.71 in 10.0 mi NNW 21.9 mph 28.8 mph N/A Snow Light Snow
3:16 AM 26.6 °F 13.4 °F 26.6 °F 100% 29.72 in 5.0 mi NNW 18.4 mph 29.9 mph N/A Snow Light Snow
3:23 AM 26.6 °F 13.1 °F 26.6 °F 100% 29.72 in 2.5 mi NNW 19.6 mph 25.3 mph N/A Snow Light Snow
3:27 AM 26.6 °F 13.1 °F 26.6 °F 100% 29.72 in 1.8 mi NNW 19.6 mph 26.5 mph N/A Snow Light Snow
3:29 AM 26.6 °F 12.4 °F 26.6 °F 100% 29.72 in 1.5 mi NNW 21.9 mph 28.8 mph N/A Snow Light Snow
3:43 AM 26.6 °F 12.7 °F 24.8 °F 93% 29.72 in 2.0 mi NNW 20.7 mph 27.6 mph N/A   Overcast
3:55 AM 25.5 °F 10.9 °F 25.3 °F 99% 29.72 in 0.8 mi NNW 21.9 mph 35.7 mph 0.00 in Snow Light Snow
4:09 AM 24.8 °F 10.0 °F 24.8 °F 100% 29.72 in 0.8 mi NNW 21.9 mph 29.9 mph N/A Snow Light Snow
4:11 AM 24.8 °F 10.7 °F 24.8 °F 100% 29.72 in 4.0 mi NNW 19.6 mph 29.9 mph N/A   Overcast
4:19 AM 24.8 °F 10.0 °F 24.8 °F 100% 29.73 in 6.0 mi NNW 21.9 mph 29.9 mph N/A Snow Light Snow
4:28 AM 24.8 °F 8.7 °F 24.8 °F 100% 29.73 in 0.8 mi NNW 26.5 mph 33.4 mph N/A Snow Light Snow
4:37 AM 24.8 °F 11.1 °F 24.8 °F 100% 29.73 in 0.8 mi NNW 18.4 mph 33.4 mph N/A Snow Light Snow
4:46 AM 24.8 °F 10.0 °F 24.8 °F 100% 29.74 in 0.8 mi NNW 21.9 mph 29.9 mph N/A Snow Light Snow
4:55 AM 24.4 °F 9.5 °F 24.1 °F 99% 29.74 in 1.0 mi NNW 21.9 mph 27.6 mph 0.00 in Snow Light Snow
5:54 AM 23.0 °F 8.7 °F 23.0 °F 100% 29.75 in 1.0 mi NNW 18.4 mph 28.8 mph N/A Snow Light Snow
5:55 AM 23.7 °F 9.7 °F 23.2 °F 98% 29.75 in 1.0 mi NNW 18.4 mph 28.8 mph 0.00 in Snow Light Snow
6:33 AM 23.0 °F 7.6 °F 21.2 °F 93% 29.76 in 1.2 mi NNW 21.9 mph 31.1 mph N/A Snow Light Snow
6:51 AM 23.0 °F 7.6 °F 23.0 °F 100% 29.76 in 1.2 mi NNW 21.9 mph 26.5 mph N/A Snow Light Snow
6:55 AM 23.2 °F 9.0 °F 21.9 °F 95% 29.76 in 1.2 mi NNW 18.4 mph - 0.00 in Snow Light Snow
7:15 AM 23.0 °F 8.3 °F 21.2 °F 93% 29.78 in 1.8 mi NW 19.6 mph 27.6 mph N/A Snow Light Snow
7:35 AM 24.8 °F 10.0 °F 17.6 °F 74% 29.78 in 10.0 mi NNW 21.9 mph 35.7 mph N/A Snow Light Snow
7:45 AM 24.8 °F 10.0 °F 17.6 °F 74% 29.78 in 10.0 mi NW 21.9 mph 31.1 mph N/A Snow Light Snow
7:46 AM 24.8 °F 10.3 °F 17.6 °F 74% 29.78 in 10.0 mi NW 20.7 mph 31.1 mph N/A Snow Light Snow
7:47 AM 24.8 °F 10.0 °F 17.6 °F 74% 29.78 in 10.0 mi NW 21.9 mph 31.1 mph N/A Snow Light Snow
7:49 AM 24.8 °F 10.3 °F 17.6 °F 74% 29.79 in 10.0 mi NNW 20.7 mph 31.1 mph N/A Snow Light Snow
7:50 AM 24.8 °F 10.7 °F 17.6 °F 74% 29.79 in 10.0 mi NNW 19.6 mph 31.1 mph N/A Snow Light Snow
7:52 AM 23.0 °F 8.7 °F 17.6 °F 80% 29.75 in 2.0 mi NNW 18.4 mph 31.1 mph N/A Snow Light Snow
7:55 AM 23.9 °F 9.9 °F 18.0 °F 78% 29.79 in 10.0 mi NNW 18.4 mph 31.1 mph 0.00 in Snow Light Snow
8:03 AM 23.0 °F 8.0 °F 17.6 °F 80% 29.75 in 10.0 mi NNW 20.7 mph 31.1 mph N/A Snow Light Snow
8:07 AM 23.0 °F 7.2 °F 17.6 °F 80% 29.76 in 10.0 mi NW 23.0 mph 31.1 mph N/A   Mostly Cloudy
8:22 AM 23.0 °F 8.0 °F 17.6 °F 80% 29.80 in 10.0 mi NW 20.7 mph 36.8 mph N/A Snow Light Snow
8:23 AM 23.0 °F 8.0 °F 17.6 °F 80% 29.80 in 10.0 mi NW 20.7 mph 36.8 mph N/A Snow Light Snow
8:25 AM 23.0 °F 7.2 °F 17.6 °F 80% 29.80 in 10.0 mi NNW 23.0 mph 36.8 mph N/A Snow Light Snow
8:30 AM 23.0 °F 8.0 °F 17.6 °F 80% 29.81 in 10.0 mi NW 20.7 mph 32.2 mph N/A   Mostly Cloudy
8:31 AM 23.0 °F 6.9 °F 17.6 °F 80% 29.81 in 10.0 mi NW 24.2 mph 32.2 mph N/A Snow Light Snow
8:44 AM 23.0 °F 9.2 °F 17.6 °F 80% 29.81 in 10.0 mi NW 17.3 mph 29.9 mph N/A Snow Light Snow
8:55 AM 23.5 °F 8.7 °F 18.1 °F 80% 29.82 in 10.0 mi NW 20.7 mph 29.9 mph 0.00 in Snow Light Snow
9:17 AM 23.0 °F 6.6 °F 19.4 °F 86% 29.78 in 2.0 mi NW 25.3 mph 34.5 mph N/A Snow Light Snow
9:45 AM 23.0 °F 9.2 °F 17.6 °F 80% 29.80 in 3.0 mi WNW 17.3 mph 32.2 mph N/A Snow Light Snow
9:55 AM 23.0 °F 9.2 °F 16.9 °F 77% 29.84 in 10.0 mi NNW 17.3 mph 28.8 mph 0.00 in Snow Light Snow
10:55 AM 23.2 °F 8.6 °F 15.8 °F 73% 29.86 in 10.0 mi NW 19.6 mph 32.2 mph 0.00 in Snow Light Snow
11:33 AM 24.8 °F 11.1 °F 15.8 °F 69% 29.86 in 10.0 mi NW 18.4 mph 23.0 mph N/A Snow Light Snow
11:45 AM 23.0 °F 8.7 °F 17.6 °F 80% 29.85 in 10.0 mi NW 18.4 mph 28.8 mph N/A Snow Light Snow
11:55 AM 23.9 °F 9.9 °F 15.1 °F 69% 29.85 in 10.0 mi NW 18.4 mph - 0.00 in Snow Light Snow
12:24 PM 24.8 °F 9.0 °F 15.8 °F 69% 29.86 in 10.0 mi WNW 25.3 mph 29.9 mph N/A Snow Light Snow
12:26 PM 24.8 °F 10.3 °F 17.6 °F 74% 29.86 in 10.0 mi NW 20.7 mph 29.9 mph N/A Snow Light Snow
12:35 PM 23.0 °F 8.3 °F 17.6 °F 80% 29.86 in 10.0 mi NW 19.6 mph - N/A Snow Light Snow
12:39 PM 23.0 °F 8.3 °F 17.6 °F 80% 29.81 in 10.0 mi NW 19.6 mph - N/A   Mostly Cloudy
12:44 PM 24.8 °F 10.3 °F 15.8 °F 69% 29.86 in 10.0 mi NW 20.7 mph 26.5 mph N/A Snow Light Snow
12:45 PM 24.8 °F 11.1 °F 15.8 °F 69% 29.86 in 10.0 mi NW 18.4 mph 26.5 mph N/A Snow Light Snow
12:48 PM 24.8 °F 10.3 °F 15.8 °F 69% 29.81 in 10.0 mi NW 20.7 mph 26.5 mph N/A   Mostly Cloudy
12:51 PM 24.8 °F 10.7 °F 15.8 °F 69% 29.86 in 10.0 mi NW 19.6 mph 26.5 mph N/A Snow Light Snow
12:55 PM 24.4 °F 10.2 °F 15.6 °F 69% 29.86 in 10.0 mi NW 19.6 mph 26.5 mph 0.00 in Snow Light Snow
1:08 PM 24.8 °F 10.7 °F 17.6 °F 74% 29.86 in 10.0 mi NW 19.6 mph 29.9 mph N/A Snow Light Snow
1:09 PM 24.8 °F 10.3 °F 17.6 °F 74% 29.81 in 10.0 mi NW 20.7 mph 27.6 mph N/A   Mostly Cloudy
1:11 PM 24.8 °F 9.6 °F 15.8 °F 69% 29.86 in 10.0 mi NW 23.0 mph 27.6 mph N/A Snow Light Snow
1:13 PM 24.8 °F 11.1 °F 15.8 °F 69% 29.86 in 10.0 mi NW 18.4 mph 27.6 mph N/A Snow Light Snow
1:15 PM 24.8 °F 10.0 °F 15.8 °F 69% 29.86 in 10.0 mi NW 21.9 mph 29.9 mph N/A Snow Light Snow
1:16 PM 24.8 °F 9.6 °F 15.8 °F 69% 29.86 in 10.0 mi NW 23.0 mph 29.9 mph N/A Snow Light Snow
1:37 PM 24.8 °F 10.0 °F 15.8 °F 69% 29.81 in 10.0 mi NW 21.9 mph - N/A   Mostly Cloudy
1:55 PM 25.0 °F 10.2 °F 15.3 °F 67% 29.85 in 10.0 mi NW 21.9 mph 29.9 mph 0.00 in Snow Light Snow
1:56 PM 24.8 °F 10.0 °F 15.8 °F 69% 29.92 in 10.0 mi NW 21.9 mph 29.9 mph N/A   Mostly Cloudy
2:57 PM 24.8 °F 11.1 °F 14.0 °F 64% 29.92 in 10.0 mi NW 18.4 mph 28.8 mph N/A   Overcast
3:59 PM 23.0 °F 9.2 °F 12.2 °F 63% 29.95 in 10.0 mi NNW 17.3 mph 27.6 mph N/A   Scattered Clouds
4:55 PM 23.5 °F 9.9 °F 13.3 °F 65% 29.90 in 10.0 mi WNW 17.3 mph - N/A   Overcast
5:55 PM 21.9 °F 11.7 °F 13.5 °F 70% 29.91 in 10.0 mi NW 9.2 mph - N/A   Partly Cloudy
6:55 PM 17.6 °F 7.3 °F 11.8 °F 78% 29.92 in 10.0 mi WNW 8.1 mph - N/A   Mostly Cloudy
7:55 PM 18.0 °F 5.4 °F 11.5 °F 76% 29.93 in 10.0 mi WNW 11.5 mph - N/A   Clear
8:55 PM 18.7 °F 7.8 °F 12.4 °F 76% 29.95 in 10.0 mi NW 9.2 mph - N/A   Mostly Cloudy
9:20 PM 19.4 °F 9.5 °F 12.2 °F 74% 29.94 in 10.0 mi NW 8.1 mph - N/A Snow Light Snow
9:25 PM 19.4 °F 7.9 °F 12.2 °F 74% 29.89 in 10.0 mi NW 10.4 mph - N/A   Overcast
9:31 PM 17.6 °F 6.4 °F 12.2 °F 79% 29.95 in 10.0 mi NW 9.2 mph - N/A   Overcast
9:55 PM 16.2 °F 5.5 °F 9.9 °F 76% 29.96 in 10.0 mi NW 8.1 mph - N/A   Partly Cloudy
10:55 PM 14.5 °F 4.6 °F 9.5 °F 80% 29.96 in 10.0 mi NW 6.9 mph - N/A   Overcast
11:55 PM 16.3 °F 4.9 °F 8.1 °F 70% 29.99 in 10.0 mi NW 9.2 mph - N/A   Overcast